sensor_id;sensor_type;location;lat;lon;timestamp;P1;durP1;ratioP1;P2;durP2;ratioP2
13985;SDS011;7067;51.832;8.296;2022-07-29T11:23:32;4.07;;;1.73;;
13985;SDS011;7067;51.832;8.296;2022-07-29T11:28:50;2.05;;;1.23;;
13985;SDS011;7067;51.832;8.296;2022-07-29T11:32:07;1.58;;;1.20;;
13985;SDS011;7067;51.832;8.296;2022-07-29T11:39:47;2.92;;;1.08;;
13985;SDS011;7067;51.832;8.296;2022-07-29T11:50:11;3.08;;;1.50;;
13985;SDS011;7067;51.832;8.296;2022-07-29T11:52:45;3.80;;;2.05;;
13985;SDS011;7067;51.832;8.296;2022-07-29T11:55:18;2.85;;;1.30;;
13985;SDS011;7067;51.832;8.296;2022-07-29T11:57:48;2.90;;;1.50;;
13985;SDS011;7067;51.832;8.296;2022-07-29T12:00:22;2.95;;;1.10;;
13985;SDS011;7067;51.832;8.296;2022-07-29T12:02:49;7.25;;;1.38;;
13985;SDS011;7067;51.832;8.296;2022-07-29T12:05:16;3.85;;;1.60;;
13985;SDS011;7067;51.832;8.296;2022-07-29T12:07:42;5.53;;;1.20;;
13985;SDS011;7067;51.832;8.296;2022-07-29T12:10:07;4.25;;;1.42;;
13985;SDS011;7067;51.832;8.296;2022-07-29T12:12:34;12.15;;;1.75;;
13985;SDS011;7067;51.832;8.296;2022-07-29T12:15:16;4.72;;;1.48;;
13985;SDS011;7067;51.832;8.296;2022-07-29T12:17:44;3.38;;;1.48;;
13985;SDS011;7067;51.832;8.296;2022-07-29T12:20:10;3.10;;;1.08;;
13985;SDS011;7067;51.832;8.296;2022-07-29T12:22:39;6.90;;;1.48;;
13985;SDS011;7067;51.832;8.296;2022-07-29T12:25:09;5.82;;;1.38;;
13985;SDS011;7067;51.832;8.296;2022-07-29T12:27:37;2.42;;;1.38;;
13985;SDS011;7067;51.832;8.296;2022-07-29T12:30:13;4.25;;;1.20;;
13985;SDS011;7067;51.832;8.296;2022-07-29T12:32:44;3.08;;;1.35;;
13985;SDS011;7067;51.832;8.296;2022-07-29T12:35:11;6.25;;;1.48;;
13985;SDS011;7067;51.832;8.296;2022-07-29T12:37:38;5.82;;;1.77;;
13985;SDS011;7067;51.832;8.296;2022-07-29T12:40:06;6.30;;;1.40;;
13985;SDS011;7067;51.832;8.296;2022-07-29T12:42:32;4.43;;;1.30;;
13985;SDS011;7067;51.832;8.296;2022-07-29T12:44:58;3.15;;;1.50;;
13985;SDS011;7067;51.832;8.296;2022-07-29T12:47:24;3.78;;;1.30;;
13985;SDS011;7067;51.832;8.296;2022-07-29T12:49:49;8.32;;;1.30;;
13985;SDS011;7067;51.832;8.296;2022-07-29T12:54:56;6.40;;;1.65;;
13985;SDS011;7067;51.832;8.296;2022-07-29T12:57:22;5.68;;;1.35;;
13985;SDS011;7067;51.832;8.296;2022-07-29T13:00:10;5.70;;;1.63;;
13985;SDS011;7067;51.832;8.296;2022-07-29T13:02:36;4.07;;;1.35;;
13985;SDS011;7067;51.832;8.296;2022-07-29T13:05:02;3.22;;;1.52;;
13985;SDS011;7067;51.832;8.296;2022-07-29T13:07:30;3.75;;;1.38;;
13985;SDS011;7067;51.832;8.296;2022-07-29T13:13:00;8.75;;;1.83;;
13985;SDS011;7067;51.832;8.296;2022-07-29T13:15:26;4.47;;;1.52;;
13985;SDS011;7067;51.832;8.296;2022-07-29T13:17:52;2.78;;;1.52;;
13985;SDS011;7067;51.832;8.296;2022-07-29T13:20:17;5.90;;;1.55;;
13985;SDS011;7067;51.832;8.296;2022-07-29T13:22:43;6.40;;;1.42;;
13985;SDS011;7067;51.832;8.296;2022-07-29T13:25:12;4.85;;;1.52;;
13985;SDS011;7067;51.832;8.296;2022-07-29T13:27:38;7.13;;;1.42;;
13985;SDS011;7067;51.832;8.296;2022-07-29T13:30:05;5.25;;;1.40;;
13985;SDS011;7067;51.832;8.296;2022-07-29T13:32:33;2.63;;;1.25;;
13985;SDS011;7067;51.832;8.296;2022-07-29T13:35:00;5.20;;;1.60;;
13985;SDS011;7067;51.832;8.296;2022-07-29T13:37:27;4.25;;;1.92;;
13985;SDS011;7067;51.832;8.296;2022-07-29T13:39:54;4.72;;;1.73;;
13985;SDS011;7067;51.832;8.296;2022-07-29T13:42:20;5.80;;;1.80;;
13985;SDS011;7067;51.832;8.296;2022-07-29T13:44:46;6.63;;;1.52;;
13985;SDS011;7067;51.832;8.296;2022-07-29T13:47:13;4.93;;;1.52;;
13985;SDS011;7067;51.832;8.296;2022-07-29T13:49:39;3.78;;;1.88;;
13985;SDS011;7067;51.832;8.296;2022-07-29T13:52:04;5.38;;;1.33;;
13985;SDS011;7067;51.832;8.296;2022-07-29T13:54:32;6.75;;;1.40;;
13985;SDS011;7067;51.832;8.296;2022-07-29T13:56:57;4.07;;;1.42;;
13985;SDS011;7067;51.832;8.296;2022-07-29T13:59:22;6.25;;;1.70;;
13985;SDS011;7067;51.832;8.296;2022-07-29T14:01:48;3.40;;;1.40;;
13985;SDS011;7067;51.832;8.296;2022-07-29T14:04:13;3.10;;;1.60;;
13985;SDS011;7067;51.832;8.296;2022-07-29T14:06:39;5.07;;;1.65;;
13985;SDS011;7067;51.832;8.296;2022-07-29T14:09:04;8.32;;;1.63;;
13985;SDS011;7067;51.832;8.296;2022-07-29T14:11:33;6.40;;;1.92;;
13985;SDS011;7067;51.832;8.296;2022-07-29T14:13:59;3.55;;;1.60;;
13985;SDS011;7067;51.832;8.296;2022-07-29T14:16:24;9.93;;;2.10;;
13985;SDS011;7067;51.832;8.296;2022-07-29T14:18:50;3.00;;;1.63;;
13985;SDS011;7067;51.832;8.296;2022-07-29T14:21:15;6.55;;;1.88;;
13985;SDS011;7067;51.832;8.296;2022-07-29T14:23:41;2.70;;;1.95;;
13985;SDS011;7067;51.832;8.296;2022-07-29T14:26:07;5.18;;;1.65;;
13985;SDS011;7067;51.832;8.296;2022-07-29T14:28:32;6.80;;;2.10;;
13985;SDS011;7067;51.832;8.296;2022-07-29T14:30:57;6.10;;;1.67;;
13985;SDS011;7067;51.832;8.296;2022-07-29T14:33:23;5.95;;;1.80;;
13985;SDS011;7067;51.832;8.296;2022-07-29T14:35:48;4.00;;;1.40;;
13985;SDS011;7067;51.832;8.296;2022-07-29T14:38:14;5.28;;;1.60;;
13985;SDS011;7067;51.832;8.296;2022-07-29T14:40:39;3.90;;;2.10;;
13985;SDS011;7067;51.832;8.296;2022-07-29T14:43:04;4.88;;;1.48;;
13985;SDS011;7067;51.832;8.296;2022-07-29T14:45:30;5.38;;;2.30;;
13985;SDS011;7067;51.832;8.296;2022-07-29T14:47:56;5.40;;;2.08;;
13985;SDS011;7067;51.832;8.296;2022-07-29T14:50:21;5.03;;;1.90;;
13985;SDS011;7067;51.832;8.296;2022-07-29T14:52:47;11.95;;;1.70;;
13985;SDS011;7067;51.832;8.296;2022-07-29T14:55:12;4.28;;;1.75;;
13985;SDS011;7067;51.832;8.296;2022-07-29T14:57:37;4.97;;;1.75;;
13985;SDS011;7067;51.832;8.296;2022-07-29T15:00:04;6.45;;;1.70;;
13985;SDS011;7067;51.832;8.296;2022-07-29T15:02:31;2.50;;;1.83;;
13985;SDS011;7067;51.832;8.296;2022-07-29T15:04:56;3.95;;;2.17;;
13985;SDS011;7067;51.832;8.296;2022-07-29T15:07:22;5.05;;;1.70;;
13985;SDS011;7067;51.832;8.296;2022-07-29T15:09:47;6.53;;;1.90;;
13985;SDS011;7067;51.832;8.296;2022-07-29T15:12:13;8.30;;;2.08;;
13985;SDS011;7067;51.832;8.296;2022-07-29T15:14:38;5.38;;;1.60;;
13985;SDS011;7067;51.832;8.296;2022-07-29T15:17:03;8.48;;;2.42;;
13985;SDS011;7067;51.832;8.296;2022-07-29T15:19:29;9.27;;;2.13;;
13985;SDS011;7067;51.832;8.296;2022-07-29T15:21:54;8.23;;;1.73;;
13985;SDS011;7067;51.832;8.296;2022-07-29T15:24:19;5.22;;;1.92;;
13985;SDS011;7067;51.832;8.296;2022-07-29T15:26:45;3.58;;;1.75;;
13985;SDS011;7067;51.832;8.296;2022-07-29T15:29:11;3.13;;;1.70;;
13985;SDS011;7067;51.832;8.296;2022-07-29T15:31:37;5.47;;;2.30;;
13985;SDS011;7067;51.832;8.296;2022-07-29T15:34:02;6.43;;;2.08;;
13985;SDS011;7067;51.832;8.296;2022-07-29T15:36:28;3.28;;;1.98;;
13985;SDS011;7067;51.832;8.296;2022-07-29T15:38:53;10.88;;;2.38;;
13985;SDS011;7067;51.832;8.296;2022-07-29T15:41:19;5.25;;;1.90;;
13985;SDS011;7067;51.832;8.296;2022-07-29T15:43:44;6.35;;;2.05;;
13985;SDS011;7067;51.832;8.296;2022-07-29T15:46:13;6.68;;;2.72;;
13985;SDS011;7067;51.832;8.296;2022-07-29T15:48:58;2.55;;;1.65;;
13985;SDS011;7067;51.832;8.296;2022-07-29T15:51:24;5.20;;;2.20;;
13985;SDS011;7067;51.832;8.296;2022-07-29T15:53:49;4.72;;;1.95;;
13985;SDS011;7067;51.832;8.296;2022-07-29T15:56:15;11.73;;;2.17;;
13985;SDS011;7067;51.832;8.296;2022-07-29T15:58:40;7.30;;;1.65;;
13985;SDS011;7067;51.832;8.296;2022-07-29T16:01:05;5.88;;;1.98;;
13985;SDS011;7067;51.832;8.296;2022-07-29T16:03:31;2.70;;;1.63;;
13985;SDS011;7067;51.832;8.296;2022-07-29T16:05:57;7.00;;;1.83;;
13985;SDS011;7067;51.832;8.296;2022-07-29T16:08:22;6.75;;;2.40;;
13985;SDS011;7067;51.832;8.296;2022-07-29T16:10:48;4.78;;;1.45;;
13985;SDS011;7067;51.832;8.296;2022-07-29T16:13:13;4.93;;;1.65;;
13985;SDS011;7067;51.832;8.296;2022-07-29T16:15:39;8.45;;;2.10;;
13985;SDS011;7067;51.832;8.296;2022-07-29T16:18:04;5.88;;;1.98;;
13985;SDS011;7067;51.832;8.296;2022-07-29T16:20:29;3.95;;;2.17;;
13985;SDS011;7067;51.832;8.296;2022-07-29T16:22:55;6.72;;;2.10;;
13985;SDS011;7067;51.832;8.296;2022-07-29T16:25:20;3.47;;;1.50;;
13985;SDS011;7067;51.832;8.296;2022-07-29T16:27:46;6.53;;;2.88;;
13985;SDS011;7067;51.832;8.296;2022-07-29T16:30:11;7.07;;;1.98;;
13985;SDS011;7067;51.832;8.296;2022-07-29T16:32:37;4.40;;;1.77;;
13985;SDS011;7067;51.832;8.296;2022-07-29T16:35:03;7.93;;;1.98;;
13985;SDS011;7067;51.832;8.296;2022-07-29T16:37:29;4.00;;;1.70;;
13985;SDS011;7067;51.832;8.296;2022-07-29T16:40:00;6.93;;;2.15;;
13985;SDS011;7067;51.832;8.296;2022-07-29T16:42:26;10.80;;;3.45;;
13985;SDS011;7067;51.832;8.296;2022-07-29T16:44:51;9.73;;;1.60;;
13985;SDS011;7067;51.832;8.296;2022-07-29T16:47:16;7.18;;;2.28;;
13985;SDS011;7067;51.832;8.296;2022-07-29T16:49:42;9.60;;;2.05;;
13985;SDS011;7067;51.832;8.296;2022-07-29T16:52:07;13.13;;;2.28;;
13985;SDS011;7067;51.832;8.296;2022-07-29T16:54:33;4.55;;;2.33;;
13985;SDS011;7067;51.832;8.296;2022-07-29T16:56:58;5.50;;;2.10;;
13985;SDS011;7067;51.832;8.296;2022-07-29T16:59:27;7.32;;;2.15;;
13985;SDS011;7067;51.832;8.296;2022-07-29T17:01:53;4.15;;;2.28;;
13985;SDS011;7067;51.832;8.296;2022-07-29T17:04:18;4.70;;;2.03;;
13985;SDS011;7067;51.832;8.296;2022-07-29T17:06:43;6.93;;;2.55;;
13985;SDS011;7067;51.832;8.296;2022-07-29T17:09:09;4.78;;;2.45;;
13985;SDS011;7067;51.832;8.296;2022-07-29T17:11:35;8.95;;;3.42;;
13985;SDS011;7067;51.832;8.296;2022-07-29T17:14:02;6.53;;;3.35;;
13985;SDS011;7067;51.832;8.296;2022-07-29T17:16:27;8.55;;;3.80;;
13985;SDS011;7067;51.832;8.296;2022-07-29T17:18:55;11.32;;;3.60;;
13985;SDS011;7067;51.832;8.296;2022-07-29T17:21:21;6.75;;;3.67;;
13985;SDS011;7067;51.832;8.296;2022-07-29T17:23:48;5.75;;;2.72;;
13985;SDS011;7067;51.832;8.296;2022-07-29T17:26:14;7.07;;;2.92;;
13985;SDS011;7067;51.832;8.296;2022-07-29T17:28:39;5.25;;;2.72;;
13985;SDS011;7067;51.832;8.296;2022-07-29T17:31:05;5.10;;;2.03;;
13985;SDS011;7067;51.832;8.296;2022-07-29T17:33:30;8.18;;;2.00;;
13985;SDS011;7067;51.832;8.296;2022-07-29T17:35:55;7.20;;;2.00;;
13985;SDS011;7067;51.832;8.296;2022-07-29T17:38:39;3.42;;;1.60;;
13985;SDS011;7067;51.832;8.296;2022-07-29T17:41:05;4.82;;;2.20;;
13985;SDS011;7067;51.832;8.296;2022-07-29T17:43:30;3.85;;;2.38;;
13985;SDS011;7067;51.832;8.296;2022-07-29T17:45:56;4.63;;;1.98;;
13985;SDS011;7067;51.832;8.296;2022-07-29T17:48:21;9.07;;;1.98;;
13985;SDS011;7067;51.832;8.296;2022-07-29T17:50:47;3.90;;;2.33;;
13985;SDS011;7067;51.832;8.296;2022-07-29T17:53:13;6.57;;;2.13;;
13985;SDS011;7067;51.832;8.296;2022-07-29T17:55:39;4.85;;;2.15;;
13985;SDS011;7067;51.832;8.296;2022-07-29T17:58:05;2.60;;;1.80;;
13985;SDS011;7067;51.832;8.296;2022-07-29T18:00:32;2.60;;;2.00;;
13985;SDS011;7067;51.832;8.296;2022-07-29T18:02:58;7.85;;;2.50;;
13985;SDS011;7067;51.832;8.296;2022-07-29T18:05:23;11.27;;;3.35;;
13985;SDS011;7067;51.832;8.296;2022-07-29T18:07:49;3.92;;;2.15;;
13985;SDS011;7067;51.832;8.296;2022-07-29T18:10:14;5.03;;;2.20;;
13985;SDS011;7067;51.832;8.296;2022-07-29T18:12:39;4.43;;;2.10;;
13985;SDS011;7067;51.832;8.296;2022-07-29T18:15:05;3.55;;;1.92;;
13985;SDS011;7067;51.832;8.296;2022-07-29T18:17:31;2.85;;;1.90;;
13985;SDS011;7067;51.832;8.296;2022-07-29T18:19:56;3.25;;;2.20;;
13985;SDS011;7067;51.832;8.296;2022-07-29T18:22:21;6.70;;;2.30;;
13985;SDS011;7067;51.832;8.296;2022-07-29T18:24:46;6.10;;;2.38;;
13985;SDS011;7067;51.832;8.296;2022-07-29T18:27:12;9.75;;;2.35;;
13985;SDS011;7067;51.832;8.296;2022-07-29T18:29:37;4.07;;;2.83;;
13985;SDS011;7067;51.832;8.296;2022-07-29T18:32:03;3.90;;;3.05;;
13985;SDS011;7067;51.832;8.296;2022-07-29T18:34:28;5.45;;;2.78;;
13985;SDS011;7067;51.832;8.296;2022-07-29T18:36:54;4.22;;;2.75;;
13985;SDS011;7067;51.832;8.296;2022-07-29T18:39:19;5.90;;;3.30;;
13985;SDS011;7067;51.832;8.296;2022-07-29T18:41:44;5.10;;;3.30;;
13985;SDS011;7067;51.832;8.296;2022-07-29T18:44:10;4.90;;;3.80;;
13985;SDS011;7067;51.832;8.296;2022-07-29T18:46:40;5.50;;;4.22;;
13985;SDS011;7067;51.832;8.296;2022-07-29T18:49:06;7.45;;;4.32;;
13985;SDS011;7067;51.832;8.296;2022-07-29T18:51:31;6.32;;;3.20;;
13985;SDS011;7067;51.832;8.296;2022-07-29T18:53:57;6.18;;;4.32;;
13985;SDS011;7067;51.832;8.296;2022-07-29T18:56:22;8.93;;;3.88;;
13985;SDS011;7067;51.832;8.296;2022-07-29T18:58:47;5.45;;;3.30;;
13985;SDS011;7067;51.832;8.296;2022-07-29T19:01:13;5.97;;;3.83;;
13985;SDS011;7067;51.832;8.296;2022-07-29T19:03:38;4.43;;;3.90;;
13985;SDS011;7067;51.832;8.296;2022-07-29T19:06:03;4.65;;;3.22;;
13985;SDS011;7067;51.832;8.296;2022-07-29T19:08:29;3.55;;;3.10;;
13985;SDS011;7067;51.832;8.296;2022-07-29T19:10:54;9.63;;;3.83;;
13985;SDS011;7067;51.832;8.296;2022-07-29T19:13:20;5.88;;;4.00;;
13985;SDS011;7067;51.832;8.296;2022-07-29T19:15:45;7.47;;;3.80;;
13985;SDS011;7067;51.832;8.296;2022-07-29T19:18:10;3.92;;;3.63;;
13985;SDS011;7067;51.832;8.296;2022-07-29T19:20:39;5.00;;;3.65;;
13985;SDS011;7067;51.832;8.296;2022-07-29T19:25:56;4.78;;;3.33;;
13985;SDS011;7067;51.832;8.296;2022-07-29T19:28:22;7.10;;;5.18;;
13985;SDS011;7067;51.832;8.296;2022-07-29T19:30:48;6.03;;;3.83;;
13985;SDS011;7067;51.832;8.296;2022-07-29T19:33:13;6.93;;;4.18;;
13985;SDS011;7067;51.832;8.296;2022-07-29T19:35:41;5.38;;;4.28;;
13985;SDS011;7067;51.832;8.296;2022-07-29T19:38:08;8.05;;;4.60;;
13985;SDS011;7067;51.832;8.296;2022-07-29T19:40:33;5.78;;;4.28;;
13985;SDS011;7067;51.832;8.296;2022-07-29T19:42:59;7.38;;;4.95;;
13985;SDS011;7067;51.832;8.296;2022-07-29T19:45:24;6.93;;;5.20;;
13985;SDS011;7067;51.832;8.296;2022-07-29T19:47:50;5.97;;;5.15;;
13985;SDS011;7067;51.832;8.296;2022-07-29T19:50:16;8.80;;;4.57;;
13985;SDS011;7067;51.832;8.296;2022-07-29T19:52:42;9.93;;;4.57;;
13985;SDS011;7067;51.832;8.296;2022-07-29T19:55:09;7.25;;;4.85;;
13985;SDS011;7067;51.832;8.296;2022-07-29T19:57:34;6.90;;;4.82;;
13985;SDS011;7067;51.832;8.296;2022-07-29T20:00:00;9.55;;;5.30;;
13985;SDS011;7067;51.832;8.296;2022-07-29T20:02:25;5.72;;;5.07;;
13985;SDS011;7067;51.832;8.296;2022-07-29T20:04:50;6.55;;;5.13;;
13985;SDS011;7067;51.832;8.296;2022-07-29T20:07:16;5.93;;;5.13;;
13985;SDS011;7067;51.832;8.296;2022-07-29T20:09:41;6.25;;;4.70;;
13985;SDS011;7067;51.832;8.296;2022-07-29T20:12:07;5.68;;;5.20;;
13985;SDS011;7067;51.832;8.296;2022-07-29T20:14:34;10.60;;;6.57;;
13985;SDS011;7067;51.832;8.296;2022-07-29T20:16:59;8.27;;;6.20;;
13985;SDS011;7067;51.832;8.296;2022-07-29T20:19:25;9.30;;;5.80;;
13985;SDS011;7067;51.832;8.296;2022-07-29T20:21:50;11.48;;;7.07;;
13985;SDS011;7067;51.832;8.296;2022-07-29T20:24:16;7.47;;;6.40;;
13985;SDS011;7067;51.832;8.296;2022-07-29T20:26:42;9.23;;;6.55;;
13985;SDS011;7067;51.832;8.296;2022-07-29T20:29:07;9.00;;;7.30;;
13985;SDS011;7067;51.832;8.296;2022-07-29T20:31:33;9.60;;;6.70;;
13985;SDS011;7067;51.832;8.296;2022-07-29T20:33:59;9.77;;;6.97;;
13985;SDS011;7067;51.832;8.296;2022-07-29T20:36:24;9.20;;;7.82;;
13985;SDS011;7067;51.832;8.296;2022-07-29T20:38:50;9.32;;;8.43;;
13985;SDS011;7067;51.832;8.296;2022-07-29T20:41:15;8.10;;;7.30;;
13985;SDS011;7067;51.832;8.296;2022-07-29T20:43:40;9.27;;;7.63;;
13985;SDS011;7067;51.832;8.296;2022-07-29T20:46:06;8.65;;;6.90;;
13985;SDS011;7067;51.832;8.296;2022-07-29T20:48:31;7.75;;;6.85;;
13985;SDS011;7067;51.832;8.296;2022-07-29T20:50:56;10.88;;;7.20;;
13985;SDS011;7067;51.832;8.296;2022-07-29T20:53:22;12.52;;;9.75;;
13985;SDS011;7067;51.832;8.296;2022-07-29T20:55:47;10.65;;;9.20;;
13985;SDS011;7067;51.832;8.296;2022-07-29T20:58:13;12.13;;;8.65;;
13985;SDS011;7067;51.832;8.296;2022-07-29T21:00:38;13.90;;;9.55;;
13985;SDS011;7067;51.832;8.296;2022-07-29T21:03:03;11.82;;;9.32;;
13985;SDS011;7067;51.832;8.296;2022-07-29T21:05:29;11.73;;;9.77;;
13985;SDS011;7067;51.832;8.296;2022-07-29T21:07:54;14.65;;;10.23;;
13985;SDS011;7067;51.832;8.296;2022-07-29T21:10:20;11.63;;;9.82;;
13985;SDS011;7067;51.832;8.296;2022-07-29T21:12:46;13.63;;;9.45;;
13985;SDS011;7067;51.832;8.296;2022-07-29T21:15:11;12.60;;;9.02;;
13985;SDS011;7067;51.832;8.296;2022-07-29T21:17:40;10.65;;;6.53;;
13985;SDS011;7067;51.832;8.296;2022-07-29T21:20:13;7.65;;;5.65;;
13985;SDS011;7067;51.832;8.296;2022-07-29T21:22:39;5.95;;;5.32;;
13985;SDS011;7067;51.832;8.296;2022-07-29T21:25:05;6.38;;;5.85;;
13985;SDS011;7067;51.832;8.296;2022-07-29T21:27:31;6.63;;;5.63;;
13985;SDS011;7067;51.832;8.296;2022-07-29T21:30:15;10.13;;;6.00;;
13985;SDS011;7067;51.832;8.296;2022-07-29T21:32:40;6.97;;;5.32;;
13985;SDS011;7067;51.832;8.296;2022-07-29T21:35:06;7.35;;;5.93;;
13985;SDS011;7067;51.832;8.296;2022-07-29T21:37:32;7.05;;;6.35;;
13985;SDS011;7067;51.832;8.296;2022-07-29T21:39:57;8.75;;;6.20;;
13985;SDS011;7067;51.832;8.296;2022-07-29T21:42:22;6.90;;;6.18;;
13985;SDS011;7067;51.832;8.296;2022-07-29T21:44:48;9.00;;;7.22;;
13985;SDS011;7067;51.832;8.296;2022-07-29T21:47:13;8.43;;;6.88;;
13985;SDS011;7067;51.832;8.296;2022-07-29T21:49:39;8.50;;;7.22;;
13985;SDS011;7067;51.832;8.296;2022-07-29T21:52:04;9.68;;;8.15;;
13985;SDS011;7067;51.832;8.296;2022-07-29T21:54:31;10.95;;;8.23;;
13985;SDS011;7067;51.832;8.296;2022-07-29T21:56:56;11.75;;;8.68;;
13985;SDS011;7067;51.832;8.296;2022-07-29T21:59:21;8.98;;;7.20;;
13985;SDS011;7067;51.832;8.296;2022-07-29T22:01:47;9.65;;;8.20;;
13985;SDS011;7067;51.832;8.296;2022-07-29T22:04:12;9.15;;;8.02;;
13985;SDS011;7067;51.832;8.296;2022-07-29T22:06:38;9.90;;;7.80;;
13985;SDS011;7067;51.832;8.296;2022-07-29T22:09:04;9.80;;;8.60;;
13985;SDS011;7067;51.832;8.296;2022-07-29T22:11:29;8.40;;;7.60;;
13985;SDS011;7067;51.832;8.296;2022-07-29T22:13:54;8.65;;;7.95;;
13985;SDS011;7067;51.832;8.296;2022-07-29T22:16:20;11.23;;;7.95;;
13985;SDS011;7067;51.832;8.296;2022-07-29T22:18:46;9.40;;;8.40;;
13985;SDS011;7067;51.832;8.296;2022-07-29T22:21:12;8.85;;;8.25;;
13985;SDS011;7067;51.832;8.296;2022-07-29T22:23:38;8.68;;;7.93;;
13985;SDS011;7067;51.832;8.296;2022-07-29T22:26:04;9.90;;;8.68;;
13985;SDS011;7067;51.832;8.296;2022-07-29T22:28:29;10.07;;;9.07;;
13985;SDS011;7067;51.832;8.296;2022-07-29T22:30:54;9.95;;;8.95;;
13985;SDS011;7067;51.832;8.296;2022-07-29T22:33:20;11.27;;;9.70;;
13985;SDS011;7067;51.832;8.296;2022-07-29T22:35:45;10.63;;;8.77;;
13985;SDS011;7067;51.832;8.296;2022-07-29T22:38:11;11.13;;;9.60;;
13985;SDS011;7067;51.832;8.296;2022-07-29T22:40:37;10.82;;;9.55;;
13985;SDS011;7067;51.832;8.296;2022-07-29T22:43:02;10.52;;;9.55;;
13985;SDS011;7067;51.832;8.296;2022-07-29T22:45:28;10.70;;;9.77;;
13985;SDS011;7067;51.832;8.296;2022-07-29T22:47:54;10.90;;;9.90;;
13985;SDS011;7067;51.832;8.296;2022-07-29T22:50:19;9.88;;;8.93;;
13985;SDS011;7067;51.832;8.296;2022-07-29T22:52:45;9.88;;;8.20;;
13985;SDS011;7067;51.832;8.296;2022-07-29T22:55:10;9.85;;;9.05;;
13985;SDS011;7067;51.832;8.296;2022-07-29T22:57:36;9.75;;;8.77;;
13985;SDS011;7067;51.832;8.296;2022-07-29T23:00:02;9.43;;;8.43;;
13985;SDS011;7067;51.832;8.296;2022-07-29T23:02:29;10.52;;;9.45;;
13985;SDS011;7067;51.832;8.296;2022-07-29T23:04:54;9.15;;;8.45;;
13985;SDS011;7067;51.832;8.296;2022-07-29T23:07:20;9.00;;;8.25;;
13985;SDS011;7067;51.832;8.296;2022-07-29T23:09:45;8.90;;;8.10;;
13985;SDS011;7067;51.832;8.296;2022-07-29T23:12:10;9.80;;;8.90;;
13985;SDS011;7067;51.832;8.296;2022-07-29T23:14:36;8.75;;;8.02;;
13985;SDS011;7067;51.832;8.296;2022-07-29T23:17:01;9.38;;;8.50;;
13985;SDS011;7067;51.832;8.296;2022-07-29T23:19:27;9.45;;;8.07;;
13985;SDS011;7067;51.832;8.296;2022-07-29T23:21:52;9.20;;;8.40;;
13985;SDS011;7067;51.832;8.296;2022-07-29T23:24:17;9.50;;;8.52;;
13985;SDS011;7067;51.832;8.296;2022-07-29T23:26:43;11.50;;;8.85;;
13985;SDS011;7067;51.832;8.296;2022-07-29T23:29:08;10.02;;;8.40;;
13985;SDS011;7067;51.832;8.296;2022-07-29T23:31:34;10.05;;;8.00;;
13985;SDS011;7067;51.832;8.296;2022-07-29T23:34:00;11.25;;;8.43;;
13985;SDS011;7067;51.832;8.296;2022-07-29T23:36:25;9.60;;;8.48;;
13985;SDS011;7067;51.832;8.296;2022-07-29T23:38:51;10.68;;;9.45;;
13985;SDS011;7067;51.832;8.296;2022-07-29T23:41:16;9.77;;;8.98;;
13985;SDS011;7067;51.832;8.296;2022-07-29T23:43:42;9.75;;;8.75;;
13985;SDS011;7067;51.832;8.296;2022-07-29T23:46:07;10.10;;;8.63;;
13985;SDS011;7067;51.832;8.296;2022-07-29T23:48:33;10.07;;;9.23;;
13985;SDS011;7067;51.832;8.296;2022-07-29T23:50:58;10.35;;;9.52;;
13985;SDS011;7067;51.832;8.296;2022-07-29T23:53:25;11.07;;;9.95;;
13985;SDS011;7067;51.832;8.296;2022-07-29T23:55:51;11.48;;;10.38;;
13985;SDS011;7067;51.832;8.296;2022-07-29T23:58:16;11.68;;;10.57;;
